createdAt,value
2023-05-04T00:00:19.435Z,100270.06
2023-05-04T00:02:22.341Z,100258.53
2023-05-04T00:04:25.484Z,100251.50
2023-05-04T00:06:28.334Z,100254.63
2023-05-04T00:08:31.975Z,100248.50
2023-05-04T00:10:34.818Z,100248.66
2023-05-04T00:12:38.420Z,100259.25
2023-05-04T00:14:41.456Z,100253.94
2023-05-04T00:16:46.005Z,100254.09
2023-05-04T00:18:48.956Z,100257.06
2023-05-04T00:20:51.942Z,100253.22
2023-05-04T00:22:54.882Z,100251.84
2023-05-04T00:24:57.746Z,100247.28
2023-05-04T00:27:00.734Z,100238.72
2023-05-04T00:29:04.211Z,100237.94
2023-05-04T00:31:07.103Z,100250.63
2023-05-04T00:33:11.668Z,100248.81
2023-05-04T00:35:14.737Z,100244.63
2023-05-04T00:37:17.646Z,100243.78
2023-05-04T00:39:20.751Z,100241.47
2023-05-04T00:41:23.718Z,100240.81
2023-05-04T00:43:27.076Z,100228.19
2023-05-04T00:45:30.596Z,100232.66
2023-05-04T00:47:33.645Z,100231.59
2023-05-04T00:49:38.449Z,100232.84
2023-05-04T00:51:41.917Z,100232.09
2023-05-04T00:53:45.825Z,100227.56
2023-05-04T00:55:48.789Z,100232.44
2023-05-04T00:57:52.167Z,100226.84
2023-05-04T00:59:54.998Z,100232.50
2023-05-04T01:01:57.997Z,100229.84
2023-05-04T01:04:01.362Z,100226.28
2023-05-04T01:06:19.578Z,100218.94
2023-05-04T01:08:27.977Z,100217.00
2023-05-04T01:10:36.035Z,100221.47
2023-05-04T01:12:43.052Z,100218.75
2023-05-04T01:14:47.766Z,100224.00
2023-05-04T01:16:55.530Z,100216.72
2023-05-04T01:18:58.508Z,100215.44
2023-05-04T01:21:02.653Z,100218.13
2023-05-04T01:23:08.671Z,100222.31
2023-05-04T01:25:12.260Z,100220.53
2023-05-04T01:27:22.890Z,100224.38
2023-05-04T01:29:32.268Z,100219.72
2023-05-04T01:31:37.268Z,100217.56
2023-05-04T01:33:40.597Z,100211.19
2023-05-04T01:35:43.855Z,100206.84
2023-05-04T01:37:46.755Z,100210.06
2023-05-04T01:39:51.178Z,100204.38
2023-05-04T01:41:54.057Z,100210.53
2023-05-04T01:43:57.549Z,100209.38
2023-05-04T01:46:02.453Z,100210.06
2023-05-04T01:48:06.246Z,100204.00
2023-05-04T01:50:09.692Z,100206.00
2023-05-04T01:52:12.743Z,100211.97
2023-05-04T01:54:15.848Z,100200.94
2023-05-04T01:56:21.003Z,100212.84
2023-05-04T01:58:24.091Z,100211.03
2023-05-04T02:00:27.302Z,100207.31
2023-05-04T02:02:30.174Z,100211.63
2023-05-04T02:04:34.327Z,100204.31
2023-05-04T02:06:37.210Z,100210.84
2023-05-04T02:08:40.293Z,100217.00
2023-05-04T02:10:43.635Z,100207.75
2023-05-04T02:12:48.308Z,100210.25
2023-05-04T02:14:51.328Z,100210.69
2023-05-04T02:16:54.306Z,100208.28
2023-05-04T02:18:57.224Z,100213.09
2023-05-04T02:21:00.130Z,100212.75
2023-05-04T02:23:03.049Z,100205.16
2023-05-04T02:25:07.008Z,100208.13
2023-05-04T02:27:10.110Z,100218.72
2023-05-04T02:29:14.604Z,100208.72
2023-05-04T02:31:17.667Z,100205.25
2023-05-04T02:33:20.688Z,100213.59
2023-05-04T02:35:24.237Z,100217.78
2023-05-04T02:37:27.136Z,100219.59
2023-05-04T02:39:29.914Z,100216.09
2023-05-04T02:41:32.928Z,100214.19
2023-05-04T02:43:35.884Z,100219.66
2023-05-04T02:45:40.264Z,100222.06
2023-05-04T02:47:43.202Z,100212.03
2023-05-04T02:49:46.651Z,100208.84
2023-05-04T02:51:49.506Z,100210.34
2023-05-04T02:53:52.528Z,100210.50
2023-05-04T02:55:55.392Z,100202.25
2023-05-04T02:57:58.633Z,100205.13
2023-05-04T03:00:01.732Z,100211.50
2023-05-04T03:02:06.613Z,100218.22
2023-05-04T03:04:09.482Z,100205.53
2023-05-04T03:06:12.558Z,100209.22
2023-05-04T03:08:16.107Z,100221.03
2023-05-04T03:10:19.371Z,100206.50
2023-05-04T03:12:22.332Z,100220.81
2023-05-04T03:14:25.263Z,100210.97
2023-05-04T03:16:28.408Z,100213.41
2023-05-04T03:18:33.108Z,100219.31
2023-05-04T03:20:36.899Z,100218.31
2023-05-04T03:22:39.819Z,100224.97
2023-05-04T03:24:43.257Z,100227.69
2023-05-04T03:26:47.565Z,100217.00
2023-05-04T03:28:51.158Z,100221.72
2023-05-04T03:30:54.021Z,100218.78
2023-05-04T03:32:57.825Z,100215.44
2023-05-04T03:35:04.064Z,100220.81
2023-05-04T03:37:08.454Z,100214.22
2023-05-04T03:39:11.849Z,100217.72
2023-05-04T03:41:14.728Z,100221.03
2023-05-04T03:43:17.780Z,100220.00
2023-05-04T03:45:22.429Z,100214.00
2023-05-04T03:47:25.714Z,100218.91
2023-05-04T03:49:28.832Z,100226.59
2023-05-04T03:51:33.375Z,100229.44
2023-05-04T03:53:37.299Z,100226.50
2023-05-04T03:55:40.242Z,100225.41
2023-05-04T03:57:43.181Z,100225.06
2023-05-04T03:59:46.133Z,100218.47
2023-05-04T04:01:50.114Z,100222.19
2023-05-04T04:03:53.285Z,100224.31
2023-05-04T04:05:56.979Z,100224.63
2023-05-04T04:08:03.408Z,100224.16
2023-05-04T04:10:07.543Z,100221.97
2023-05-04T04:12:10.500Z,100231.13
2023-05-04T04:14:13.735Z,100222.66
2023-05-04T04:16:16.919Z,100225.25
2023-05-04T04:18:20.087Z,100228.69
2023-05-04T04:20:23.180Z,100228.66
2023-05-04T04:22:26.741Z,100229.31
2023-05-04T04:24:32.047Z,100224.66
2023-05-04T04:26:35.503Z,100232.66
2023-05-04T04:28:38.455Z,100228.84
2023-05-04T04:30:41.975Z,100231.94
2023-05-04T04:32:45.983Z,100222.28
2023-05-04T04:34:49.019Z,100228.94
2023-05-04T04:36:52.558Z,100229.59
2023-05-04T04:38:55.622Z,100222.78
2023-05-04T04:41:00.138Z,100232.13
2023-05-04T04:43:03.138Z,100225.81
2023-05-04T04:45:07.470Z,100228.75
2023-05-04T04:47:10.478Z,100231.09
2023-05-04T04:49:13.614Z,100221.66
2023-05-04T04:51:16.747Z,100222.94
2023-05-04T04:53:19.763Z,100219.34
2023-05-04T04:55:26.151Z,100220.44
2023-05-04T04:57:31.836Z,100225.28
2023-05-04T04:59:34.962Z,100224.22
2023-05-04T05:01:38.414Z,100229.81
2023-05-04T05:03:41.226Z,100237.25
2023-05-04T05:05:44.339Z,100229.84
2023-05-04T05:07:47.169Z,100231.97
2023-05-04T05:09:50.078Z,100234.00
2023-05-04T05:11:52.998Z,100238.16
2023-05-04T05:13:57.541Z,100231.09
2023-05-04T05:16:00.545Z,100239.38
2023-05-04T05:18:03.535Z,100233.69
2023-05-04T05:20:11.734Z,100242.41
2023-05-04T05:22:14.736Z,100236.91
2023-05-04T05:24:17.573Z,100238.72
2023-05-04T05:26:20.541Z,100237.50
2023-05-04T05:28:23.408Z,100247.84
2023-05-04T05:30:28.921Z,100245.72
2023-05-04T05:32:31.968Z,100241.19
2023-05-04T05:34:35.199Z,100247.66
2023-05-04T05:36:38.065Z,100243.69
2023-05-04T05:38:41.223Z,100253.16
2023-05-04T05:40:44.133Z,100249.44
2023-05-04T05:42:47.367Z,100247.19
2023-05-04T05:44:50.463Z,100254.34
2023-05-04T05:46:54.781Z,100247.16
2023-05-04T05:48:57.939Z,100241.06
2023-05-04T05:51:01.037Z,100239.63
2023-05-04T05:53:03.949Z,100240.31
2023-05-04T05:55:07.371Z,100233.81
2023-05-04T05:57:10.230Z,100246.16
2023-05-04T05:59:13.180Z,100234.81
2023-05-04T06:01:16.210Z,100233.59
2023-05-04T06:03:21.083Z,100237.06
2023-05-04T06:05:24.207Z,100240.00
2023-05-04T06:07:27.417Z,100230.44
2023-05-04T06:09:30.298Z,100238.81
2023-05-04T06:11:33.268Z,100228.63
2023-05-04T06:13:36.238Z,100236.88
2023-05-04T06:15:39.222Z,100230.69
2023-05-04T06:17:42.251Z,100224.63
2023-05-04T06:19:48.077Z,100232.63
2023-05-04T06:21:52.441Z,100235.31
2023-05-04T06:23:55.395Z,100244.09
2023-05-04T06:25:58.486Z,100239.78
2023-05-04T06:28:01.519Z,100241.94
2023-05-04T06:30:05.796Z,100256.75
2023-05-04T06:32:10.227Z,100248.53
2023-05-04T06:34:13.414Z,100254.88
2023-05-04T06:36:18.363Z,100243.97
2023-05-04T06:38:21.988Z,100244.31
2023-05-04T06:40:26.671Z,100248.50
2023-05-04T06:42:31.832Z,100243.69
2023-05-04T06:44:37.769Z,100253.59
2023-05-04T06:46:40.814Z,100243.66
2023-05-04T06:48:44.167Z,100244.28
2023-05-04T06:50:47.678Z,100246.66
2023-05-04T06:52:52.317Z,100239.69
2023-05-04T06:54:55.196Z,100241.09
2023-05-04T06:56:58.172Z,100240.00
2023-05-04T06:59:01.193Z,100251.53
2023-05-04T07:01:04.494Z,100244.72
2023-05-04T07:03:07.616Z,100256.91
2023-05-04T07:05:11.020Z,100250.16
2023-05-04T07:07:13.814Z,100246.38
2023-05-04T07:09:19.876Z,100242.78
2023-05-04T07:11:22.822Z,100254.59
2023-05-04T07:13:25.922Z,100244.75
2023-05-04T07:15:28.717Z,100246.69
2023-05-04T07:17:32.603Z,100245.47
2023-05-04T07:19:35.725Z,100246.94
2023-05-04T07:21:38.805Z,100245.28
2023-05-04T07:23:41.834Z,100249.94
2023-05-04T07:25:46.366Z,100252.97
2023-05-04T07:27:49.263Z,100263.41
2023-05-04T07:29:52.182Z,100257.53
2023-05-04T07:31:55.158Z,100248.69
2023-05-04T07:33:58.281Z,100253.91
2023-05-04T07:36:01.152Z,100250.91
2023-05-04T07:38:04.154Z,100252.88
2023-05-04T07:40:08.381Z,100252.44
2023-05-04T07:42:12.949Z,100246.69
2023-05-04T07:44:16.404Z,100242.75
2023-05-04T07:46:19.563Z,100237.72
2023-05-04T07:48:24.609Z,100237.09
2023-05-04T07:50:29.609Z,100236.84
2023-05-04T07:52:32.592Z,100238.59
2023-05-04T07:54:36.502Z,100231.22
2023-05-04T07:56:39.394Z,100236.84
2023-05-04T07:58:44.106Z,100230.44
2023-05-04T08:00:46.993Z,100233.25
2023-05-04T08:02:50.054Z,100232.56
2023-05-04T08:04:53.012Z,100231.34
2023-05-04T08:06:56.130Z,100239.34
2023-05-04T08:08:58.993Z,100240.94
2023-05-04T08:11:15.831Z,100247.19
2023-05-04T08:13:22.882Z,100245.88
2023-05-04T08:15:27.436Z,100250.19
2023-05-04T08:17:30.449Z,100241.63
2023-05-04T08:19:34.334Z,100242.94
2023-05-04T08:21:37.250Z,100243.78
2023-05-04T08:23:40.223Z,100245.09
2023-05-04T08:25:43.280Z,100240.13
2023-05-04T08:27:46.280Z,100244.69
2023-05-04T08:29:49.418Z,100241.66
2023-05-04T08:31:56.832Z,100237.53
2023-05-04T08:33:59.710Z,100221.22
2023-05-04T08:36:03.575Z,100236.28
2023-05-04T08:38:06.934Z,100237.38
2023-05-04T08:40:10.478Z,100236.69
2023-05-04T08:42:13.336Z,100236.72
2023-05-04T08:44:21.553Z,100240.97
2023-05-04T08:46:25.048Z,100231.19
2023-05-04T08:48:29.640Z,100237.38
2023-05-04T08:50:34.099Z,100233.72
2023-05-04T08:52:43.770Z,100228.91
2023-05-04T08:54:47.565Z,100228.63
2023-05-04T08:56:52.960Z,100231.56
2023-05-04T08:59:02.093Z,100228.44
2023-05-04T09:01:07.880Z,100228.06
2023-05-04T09:03:12.809Z,100216.88
2023-05-04T09:05:18.674Z,100224.34
2023-05-04T09:07:22.571Z,100224.56
2023-05-04T09:09:28.148Z,100218.09
2023-05-04T09:11:31.078Z,100217.91
2023-05-04T09:13:34.409Z,100207.19
2023-05-04T09:15:38.219Z,100221.06
2023-05-04T09:17:50.977Z,100211.91
2023-05-04T09:20:01.452Z,100213.22
2023-05-04T09:22:15.366Z,100216.41
2023-05-04T09:24:27.258Z,100211.69
2023-05-04T09:26:31.421Z,100210.19
2023-05-04T09:28:36.031Z,100206.19
2023-05-04T09:30:39.038Z,100211.88
2023-05-04T09:32:46.665Z,100208.34
2023-05-04T09:34:50.945Z,100204.00
2023-05-04T09:37:02.060Z,100201.06
2023-05-04T09:39:13.303Z,100200.38
2023-05-04T09:41:16.327Z,100195.88
2023-05-04T09:43:19.371Z,100192.09
2023-05-04T09:45:22.355Z,100184.88
2023-05-04T09:47:33.788Z,100190.25
2023-05-04T09:49:37.527Z,100188.38
2023-05-04T09:51:40.630Z,100192.44
2023-05-04T09:53:44.208Z,100185.31
2023-05-04T09:55:51.822Z,100175.41
2023-05-04T09:57:54.746Z,100177.94
2023-05-04T09:59:57.979Z,100176.66
2023-05-04T10:02:07.635Z,100169.53
2023-05-04T10:04:17.524Z,100175.44
2023-05-04T10:06:22.248Z,100157.25
2023-05-04T10:08:26.687Z,100171.44
2023-05-04T10:10:29.521Z,100167.75
2023-05-04T10:12:34.088Z,100160.31
2023-05-04T10:14:37.278Z,100159.09
2023-05-04T10:16:51.865Z,100162.72
2023-05-04T10:19:23.173Z,100155.63
2023-05-04T10:21:33.463Z,100162.16
2023-05-04T10:23:56.527Z,100159.59
2023-05-04T10:26:24.194Z,100153.31
2023-05-04T10:28:43.644Z,100148.84
2023-05-04T10:30:46.881Z,100145.44
2023-05-04T10:32:56.283Z,100137.88
2023-05-04T10:35:06.610Z,100136.25
2023-05-04T10:37:17.933Z,100139.44
2023-05-04T10:39:21.974Z,100135.66
2023-05-04T10:41:24.875Z,100134.38
2023-05-04T10:43:29.475Z,100127.47
2023-05-04T10:45:38.186Z,100126.41
2023-05-04T10:47:42.328Z,100122.13
2023-05-04T10:49:45.291Z,100130.47
2023-05-04T10:51:49.564Z,100125.69
2023-05-04T10:53:53.157Z,100121.59
2023-05-04T10:55:56.275Z,100122.34
2023-05-04T10:57:59.272Z,100124.50
2023-05-04T11:00:02.475Z,100117.06
2023-05-04T11:02:07.913Z,100119.34
2023-05-04T11:04:18.503Z,100117.09
2023-05-04T11:06:24.346Z,100109.22
2023-05-04T11:08:28.256Z,100108.69
2023-05-04T11:10:31.525Z,100109.78
2023-05-04T11:12:35.304Z,100107.66
2023-05-04T11:14:43.141Z,100113.19
2023-05-04T11:16:46.931Z,100102.94
2023-05-04T11:18:51.757Z,100104.16
2023-05-04T11:20:56.404Z,100103.91
2023-05-04T11:22:59.313Z,100105.72
2023-05-04T11:25:02.334Z,100095.69
2023-05-04T11:27:05.305Z,100096.22
2023-05-04T11:29:13.900Z,100095.94
2023-05-04T11:31:18.065Z,100100.50
2023-05-04T11:33:21.006Z,100082.81
2023-05-04T11:35:25.510Z,100089.59
2023-05-04T11:37:29.686Z,100079.00
2023-05-04T11:39:33.881Z,100079.53
2023-05-04T11:41:37.592Z,100079.28
2023-05-04T11:43:42.741Z,100069.16
2023-05-04T11:45:49.041Z,100070.00
2023-05-04T11:47:52.776Z,100079.03
2023-05-04T11:49:56.617Z,100069.94
2023-05-04T11:52:07.708Z,100066.88
2023-05-04T11:54:21.069Z,100080.06
2023-05-04T11:56:24.567Z,100079.00
2023-05-04T11:58:27.782Z,100070.78
2023-05-04T12:00:39.866Z,100065.59
2023-05-04T12:02:43.424Z,100070.25
2023-05-04T12:04:46.597Z,100059.88
2023-05-04T12:06:50.376Z,100064.22
2023-05-04T12:09:02.536Z,100060.84
2023-05-04T12:11:26.130Z,100066.66
2023-05-04T12:13:29.277Z,100066.88
2023-05-04T12:15:33.339Z,100056.34
2023-05-04T12:17:44.394Z,100056.63
2023-05-04T12:19:48.575Z,100056.81
2023-05-04T12:21:52.670Z,100056.00
2023-05-04T12:24:00.164Z,100054.13
2023-05-04T12:26:03.077Z,100052.22
2023-05-04T12:28:06.124Z,100051.06
2023-05-04T12:30:10.357Z,100039.50
2023-05-04T12:32:13.707Z,100043.34
2023-05-04T12:34:16.810Z,100039.91
2023-05-04T12:36:19.779Z,100037.97
2023-05-04T12:38:22.767Z,100030.59
2023-05-04T12:40:28.894Z,100034.47
2023-05-04T12:42:32.297Z,100028.19
2023-05-04T12:44:35.345Z,100033.66
2023-05-04T12:46:38.426Z,100020.28
2023-05-04T12:48:41.397Z,100015.38
2023-05-04T12:50:44.844Z,100017.31
2023-05-04T12:52:47.856Z,100013.44
2023-05-04T12:54:50.870Z,100004.97
2023-05-04T12:56:55.287Z,100005.53
2023-05-04T12:58:58.332Z,99998.59
2023-05-04T13:01:01.369Z,100000.78
2023-05-04T13:03:04.956Z,100001.09
2023-05-04T13:05:09.063Z,99997.25
2023-05-04T13:07:14.984Z,99996.72
2023-05-04T13:09:17.997Z,99998.16
2023-05-04T13:11:21.081Z,99998.03
2023-05-04T13:13:28.956Z,99991.50
2023-05-04T13:15:32.911Z,99979.72
2023-05-04T13:17:36.006Z,99994.09
2023-05-04T13:19:38.859Z,99989.03
2023-05-04T13:21:41.843Z,99987.16
2023-05-04T13:23:44.961Z,99983.44
2023-05-04T13:25:48.029Z,99987.06
2023-05-04T13:27:51.098Z,99980.06
2023-05-04T13:29:55.656Z,99980.66
2023-05-04T13:31:59.869Z,99968.38
2023-05-04T13:34:02.850Z,99977.94
2023-05-04T13:36:06.996Z,99968.84
2023-05-04T13:38:10.007Z,99970.16
2023-05-04T13:40:14.270Z,99971.38
2023-05-04T13:42:17.547Z,99966.09
2023-05-04T13:44:20.612Z,99959.03
2023-05-04T13:46:25.146Z,99960.38
2023-05-04T13:48:28.290Z,99948.84
2023-05-04T13:50:32.270Z,99950.22
2023-05-04T13:52:35.398Z,99953.66
2023-05-04T13:54:39.066Z,99938.88
2023-05-04T13:56:42.602Z,99940.78
2023-05-04T13:58:45.493Z,99937.16
2023-05-04T14:00:48.351Z,99935.53
2023-05-04T14:02:53.051Z,99936.13
2023-05-04T14:04:56.051Z,99930.75
2023-05-04T14:06:59.030Z,99932.88
2023-05-04T14:09:01.972Z,99925.69
2023-05-04T14:11:05.043Z,99922.88
2023-05-04T14:13:08.016Z,99921.66
2023-05-04T14:15:11.798Z,99920.22
2023-05-04T14:17:14.629Z,99919.81
2023-05-04T14:19:19.345Z,99911.00
2023-05-04T14:21:22.284Z,99921.09
2023-05-04T14:23:25.115Z,99917.00
2023-05-04T14:25:28.095Z,99908.38
2023-05-04T14:27:34.882Z,99915.72
2023-05-04T14:29:37.953Z,99918.38
2023-05-04T14:31:41.456Z,99919.28
2023-05-04T14:33:44.636Z,99912.97
2023-05-04T14:35:49.035Z,99912.16
2023-05-04T14:37:51.935Z,99916.19
2023-05-04T14:39:54.906Z,99917.56
2023-05-04T14:41:58.304Z,99916.22
2023-05-04T14:44:01.813Z,99909.94
2023-05-04T14:46:05.015Z,99904.75
2023-05-04T14:48:08.924Z,99908.25
2023-05-04T14:50:13.500Z,99904.50
2023-05-04T14:52:17.957Z,99898.75
2023-05-04T14:54:21.411Z,99902.56
2023-05-04T14:56:24.337Z,99901.47
2023-05-04T14:58:29.031Z,99898.44
2023-05-04T15:00:32.198Z,99897.16
2023-05-04T15:02:36.143Z,99897.69
2023-05-04T15:04:39.322Z,99903.66
2023-05-04T15:06:42.152Z,99896.28
2023-05-04T15:08:46.629Z,99883.47
2023-05-04T15:10:49.629Z,99893.53
2023-05-04T15:12:53.506Z,99884.00
2023-05-04T15:14:56.426Z,99884.84
2023-05-04T15:16:59.379Z,99885.91
2023-05-04T15:19:02.345Z,99890.56
2023-05-04T15:21:05.312Z,99880.97
2023-05-04T15:23:10.986Z,99879.41
2023-05-04T15:25:16.028Z,99882.97
2023-05-04T15:27:18.969Z,99881.84
2023-05-04T15:29:22.237Z,99876.69
2023-05-04T15:31:25.135Z,99869.03
2023-05-04T15:33:28.305Z,99872.53
2023-05-04T15:35:31.428Z,99876.94
2023-05-04T15:37:35.002Z,99878.41
2023-05-04T15:39:38.163Z,99873.56
2023-05-04T15:41:43.245Z,99861.03
2023-05-04T15:43:46.573Z,99862.19
2023-05-04T15:45:52.353Z,99858.53
2023-05-04T15:47:55.377Z,99863.13
2023-05-04T15:49:58.344Z,99858.44
2023-05-04T15:52:01.195Z,99854.59
2023-05-04T15:54:04.408Z,99861.50
2023-05-04T15:56:08.013Z,99857.31
2023-05-04T15:58:12.853Z,99859.28
2023-05-04T16:00:16.520Z,99861.16
2023-05-04T16:02:20.148Z,99851.88
2023-05-04T16:04:23.100Z,99854.75
2023-05-04T16:06:26.236Z,99852.44
2023-05-04T16:08:29.205Z,99850.06
2023-05-04T16:10:32.539Z,99856.56
2023-05-04T16:12:35.403Z,99848.88
2023-05-04T16:14:40.572Z,99854.59
2023-05-04T16:16:43.518Z,99847.16
2023-05-04T16:18:46.545Z,99848.44
2023-05-04T16:20:49.728Z,99846.88
2023-05-04T16:22:52.656Z,99842.41
2023-05-04T16:24:55.562Z,99848.41
2023-05-04T16:26:59.644Z,99850.81
2023-05-04T16:29:02.705Z,99847.03
2023-05-04T16:31:10.341Z,99847.13
2023-05-04T16:33:15.176Z,99840.59
2023-05-04T16:35:18.559Z,99839.06
2023-05-04T16:37:21.630Z,99842.97
2023-05-04T16:39:30.411Z,99839.34
2023-05-04T16:41:33.484Z,99838.13
2023-05-04T16:43:36.592Z,99838.09
2023-05-04T16:45:39.509Z,99832.91
2023-05-04T16:47:44.808Z,99835.19
2023-05-04T16:49:47.709Z,99831.63
2023-05-04T16:51:50.717Z,99830.13
2023-05-04T16:53:53.630Z,99827.41
2023-05-04T16:55:56.724Z,99836.75
2023-05-04T16:57:59.800Z,99834.28
2023-05-04T17:00:02.768Z,99836.97
2023-05-04T17:02:08.892Z,99839.38
2023-05-04T17:04:13.906Z,99836.28
2023-05-04T17:06:16.810Z,99837.78
2023-05-04T17:08:19.943Z,99841.78
2023-05-04T17:10:22.848Z,99836.56
2023-05-04T17:12:25.988Z,99837.66
2023-05-04T17:14:29.211Z,99837.72
2023-05-04T17:16:32.181Z,99843.09
2023-05-04T17:18:35.261Z,99843.22
2023-05-04T17:20:39.763Z,99844.84
2023-05-04T17:22:43.258Z,99845.19
2023-05-04T17:24:46.269Z,99840.16
2023-05-04T17:26:49.328Z,99839.25
2023-05-04T17:28:52.569Z,99838.00
2023-05-04T17:30:55.860Z,99834.97
2023-05-04T17:32:58.901Z,99846.97
2023-05-04T17:35:11.847Z,99844.00
2023-05-04T17:37:27.000Z,99847.66
2023-05-04T17:39:33.154Z,99846.22
2023-05-04T17:41:36.244Z,99851.88
2023-05-04T17:43:39.688Z,99849.78
2023-05-04T17:45:42.679Z,99851.06
2023-05-04T17:47:46.669Z,99855.34
2023-05-04T17:49:49.667Z,99849.50
2023-05-04T17:51:53.478Z,99861.00
2023-05-04T17:53:57.946Z,99862.91
2023-05-04T17:56:00.892Z,99866.84
2023-05-04T17:58:04.248Z,99872.50
2023-05-04T18:00:09.061Z,99868.88
2023-05-04T18:02:12.459Z,99869.34
2023-05-04T18:04:15.544Z,99862.19
2023-05-04T18:06:18.667Z,99866.56
2023-05-04T18:08:21.541Z,99867.34
2023-05-04T18:10:26.252Z,99867.75
2023-05-04T18:12:29.305Z,99872.97
2023-05-04T18:14:32.239Z,99865.78
2023-05-04T18:16:37.947Z,99867.56
2023-05-04T18:18:41.024Z,99869.91
2023-05-04T18:20:43.897Z,99869.81
2023-05-04T18:22:47.128Z,99867.59
2023-05-04T18:24:50.084Z,99871.13
2023-05-04T18:26:55.244Z,99877.88
2023-05-04T18:29:07.445Z,99873.25
2023-05-04T18:31:20.662Z,99872.44
2023-05-04T18:33:23.674Z,99869.47
2023-05-04T18:35:26.703Z,99871.22
2023-05-04T18:37:32.840Z,99869.38
2023-05-04T18:39:36.723Z,99876.09
2023-05-04T18:41:40.084Z,99873.84
2023-05-04T18:43:56.099Z,99876.00
2023-05-04T18:45:59.255Z,99875.56
2023-05-04T18:48:02.187Z,99892.72
2023-05-04T18:50:05.910Z,99883.78
2023-05-04T18:52:09.026Z,99888.88
2023-05-04T18:54:12.160Z,99887.16
2023-05-04T18:56:15.078Z,99893.69
2023-05-04T18:58:17.846Z,99886.94
2023-05-04T19:00:23.688Z,99890.91
2023-05-04T19:02:27.190Z,99893.53
2023-05-04T19:04:30.285Z,99891.34
2023-05-04T19:06:33.246Z,99898.78
2023-05-04T19:08:36.521Z,99892.53
2023-05-04T19:10:39.254Z,99894.81
2023-05-04T19:12:42.223Z,99888.81
2023-05-04T19:14:45.118Z,99896.06
2023-05-04T19:16:49.488Z,99894.66
2023-05-04T19:18:52.808Z,99893.69
2023-05-04T19:20:55.829Z,99899.38
2023-05-04T19:22:58.931Z,99899.16
2023-05-04T19:25:01.868Z,99900.06
2023-05-04T19:27:04.899Z,99891.22
2023-05-04T19:29:07.875Z,99897.50
2023-05-04T19:31:10.994Z,99888.94
2023-05-04T19:33:15.859Z,99894.63
2023-05-04T19:35:19.328Z,99898.19
2023-05-04T19:37:22.245Z,99903.66
2023-05-04T19:39:25.498Z,99897.94
2023-05-04T19:41:28.555Z,99894.03
2023-05-04T19:43:32.939Z,99891.56
2023-05-04T19:45:36.257Z,99887.41
2023-05-04T19:47:39.539Z,99893.81
2023-05-04T19:49:46.631Z,99898.00
2023-05-04T19:51:49.524Z,99893.16
2023-05-04T19:53:52.472Z,99899.34
2023-05-04T19:55:55.427Z,99904.97
2023-05-04T19:57:58.407Z,99896.75
2023-05-04T20:00:02.171Z,99896.66
2023-05-04T20:02:14.616Z,99895.16
2023-05-04T20:04:19.207Z,99885.59
2023-05-04T20:06:23.706Z,99883.28
2023-05-04T20:08:27.198Z,99885.16
2023-05-04T20:10:30.298Z,99880.84
2023-05-04T20:12:33.315Z,99880.53
2023-05-04T20:14:36.465Z,99880.19
2023-05-04T20:16:39.374Z,99882.88
2023-05-04T20:18:42.363Z,99887.47
2023-05-04T20:20:45.387Z,99886.47
2023-05-04T20:22:52.524Z,99883.63
2023-05-04T20:24:55.925Z,99885.91
2023-05-04T20:26:58.833Z,99885.50
2023-05-04T20:29:01.754Z,99890.22
2023-05-04T20:31:04.749Z,99887.75
2023-05-04T20:33:07.742Z,99894.16
2023-05-04T20:35:10.752Z,99885.69
2023-05-04T20:37:13.821Z,99883.84
2023-05-04T20:39:18.325Z,99887.34
2023-05-04T20:41:22.203Z,99891.28
2023-05-04T20:43:25.247Z,99882.78
2023-05-04T20:45:29.391Z,99884.19
2023-05-04T20:47:32.372Z,99883.34
2023-05-04T20:49:35.248Z,99883.94
2023-05-04T20:51:38.282Z,99882.53
2023-05-04T20:53:41.719Z,99884.41
2023-05-04T20:55:46.154Z,99878.25
2023-05-04T20:57:49.977Z,99879.53
2023-05-04T20:59:52.970Z,99873.69
2023-05-04T21:01:56.622Z,99871.63
2023-05-04T21:03:59.977Z,99869.13
2023-05-04T21:06:03.455Z,99870.41
2023-05-04T21:08:06.400Z,99864.56
2023-05-04T21:10:10.407Z,99862.53
2023-05-04T21:12:14.833Z,99868.16
2023-05-04T21:14:17.879Z,99863.84
2023-05-04T21:16:20.763Z,99853.97
2023-05-04T21:18:23.703Z,99854.38
2023-05-04T21:20:26.901Z,99856.03
2023-05-04T21:22:29.824Z,99852.53
2023-05-04T21:24:33.434Z,99845.47
2023-05-04T21:26:36.606Z,99855.19
2023-05-04T21:28:41.115Z,99855.00
2023-05-04T21:30:44.055Z,99847.38
2023-05-04T21:32:47.298Z,99853.97
2023-05-04T21:34:53.364Z,99849.66
2023-05-04T21:36:56.414Z,99845.94
2023-05-04T21:38:59.517Z,99846.16
2023-05-04T21:41:11.000Z,99854.88
2023-05-04T21:43:13.955Z,99860.63
2023-05-04T21:45:18.360Z,99854.84
2023-05-04T21:47:21.366Z,99858.94
2023-05-04T21:49:24.735Z,99851.91
2023-05-04T21:51:29.092Z,99858.91
2023-05-04T21:53:34.123Z,99860.75
2023-05-04T21:55:36.968Z,99855.38
2023-05-04T21:57:40.125Z,99864.28
2023-05-04T21:59:43.293Z,99862.22
2023-05-04T22:01:47.757Z,99849.19
2023-05-04T22:03:50.869Z,99867.38
2023-05-04T22:05:54.761Z,99856.00
2023-05-04T22:07:57.836Z,99860.94
2023-05-04T22:10:00.701Z,99865.50
2023-05-04T22:12:03.755Z,99872.13
2023-05-04T22:14:06.750Z,99866.97
2023-05-04T22:16:09.716Z,99866.13
2023-05-04T22:18:14.557Z,99864.72
2023-05-04T22:20:17.709Z,99859.75
2023-05-04T22:22:20.894Z,99863.88
2023-05-04T22:24:23.781Z,99852.75
2023-05-04T22:26:27.084Z,99857.91
2023-05-04T22:28:29.876Z,99857.28
2023-05-04T22:30:32.772Z,99860.59
2023-05-04T22:32:35.693Z,99846.59
2023-05-04T22:34:40.073Z,99850.72
2023-05-04T22:36:43.280Z,99852.19
2023-05-04T22:38:46.689Z,99852.34
2023-05-04T22:40:50.337Z,99850.72
2023-05-04T22:42:53.331Z,99850.50
2023-05-04T22:44:56.350Z,99847.81
2023-05-04T22:46:59.303Z,99840.53
2023-05-04T22:49:02.141Z,99846.34
2023-05-04T22:51:06.711Z,99847.53
2023-05-04T22:53:10.647Z,99849.31
2023-05-04T22:55:13.639Z,99841.28
2023-05-04T22:57:16.875Z,99837.25
2023-05-04T22:59:19.777Z,99835.56
2023-05-04T23:01:22.757Z,99844.00
2023-05-04T23:03:25.824Z,99837.22
2023-05-04T23:05:28.940Z,99841.78
2023-05-04T23:07:33.387Z,99836.38
2023-05-04T23:09:42.636Z,99836.41
2023-05-04T23:11:45.927Z,99841.34
2023-05-04T23:13:48.906Z,99835.22
2023-05-04T23:15:52.158Z,99843.88
2023-05-04T23:17:55.332Z,99839.34
2023-05-04T23:19:58.376Z,99840.38
2023-05-04T23:22:01.486Z,99839.13
2023-05-04T23:24:06.536Z,99828.28
2023-05-04T23:26:09.455Z,99821.19
2023-05-04T23:28:12.575Z,99824.34
2023-05-04T23:30:16.027Z,99830.94
2023-05-04T23:32:18.897Z,99832.31
2023-05-04T23:34:28.128Z,99824.25
2023-05-04T23:36:31.101Z,99816.22
2023-05-04T23:38:34.040Z,99817.81
2023-05-04T23:40:38.482Z,99821.28
2023-05-04T23:42:41.374Z,99814.41
2023-05-04T23:44:44.314Z,99805.34
2023-05-04T23:46:47.399Z,99802.19
2023-05-04T23:48:50.369Z,99802.97
2023-05-04T23:50:53.910Z,99802.63
2023-05-04T23:52:56.798Z,99790.41
2023-05-04T23:54:59.664Z,99797.53